Time;durP1;ratioP1;P1;durP2;ratioP2;P2;SDS_P1;SDS_P2;PMS_P1;PMS_P2;Temp;Humidity;BMP_temperature;BMP_pressure;BME280_temperature;BME280_humidity;BME280_pressure;Samples;Min_cycle;Max_cycle;Signal;HPM_P1;HPM_P2
2022/03/24 00:00:24;;;;;;;;;;;;;;;17.36;52.29;100604.75;2091451;28;20033;-61
2022/03/24 00:01:24;;;;;;;;;;;;;;;17.35;52.13;100604.91;2092394;28;20017;-61
2022/03/24 00:02:24;;;;;;;;;;;;;;;17.34;52.24;100595.00;2091737;28;20003;-60
2022/03/24 00:03:25;;;;;;;;;;;;;;;17.35;52.42;100602.19;2088466;28;19920;-61
2022/03/24 00:04:25;;;;;;;;;;;;;;;17.36;52.31;100601.19;2090267;28;20317;-61
2022/03/24 00:05:25;;;;;;;;;;;;;;;17.35;52.33;100602.19;2092108;28;20352;-61
2022/03/24 00:06:26;;;;;;;;;;;;;;;17.34;52.31;100595.88;2091219;28;19920;-60
2022/03/24 00:07:26;;;;;;;;;;;;;;;17.35;52.20;100599.47;2091394;28;20374;-61
2022/03/24 00:08:27;;;;;;;;;;;;;;;17.35;52.28;100594.88;2091810;28;19969;-61
2022/03/24 00:09:27;;;;;;;;;;;;;;;17.35;52.30;100594.88;2090615;28;19972;-60
2022/03/24 00:10:27;;;;;;;;;;;;;;;17.35;52.14;100594.88;2091245;28;19920;-61
2022/03/24 00:11:28;;;;;;;;;;;;;;;17.34;52.25;100593.16;2089813;28;19965;-61
2022/03/24 00:12:28;;;;;;;;;;;;;;;17.35;52.33;100588.56;2087177;28;19960;-60
2022/03/24 00:13:29;;;;;;;;;;;;;;;17.34;52.44;100595.00;2088384;28;20387;-61
2022/03/24 00:14:29;;;;;;;;;;;;;;;17.33;52.13;100591.41;2091965;28;20003;-60
2022/03/24 00:15:29;;;;;;;;;;;;;;;17.33;52.30;100594.13;2091575;28;20252;-61
2022/03/24 00:16:30;;;;;;;;;;;;;;;17.33;52.61;100596.00;2092423;28;19918;-60
2022/03/24 00:17:31;;;;;;;;;;;;;;;17.31;52.61;100592.53;2089894;28;19919;-60
2022/03/24 00:18:32;;;;;;;;;;;;;;;17.30;52.34;100591.66;2093538;28;19961;-60
2022/03/24 00:19:32;;;;;;;;;;;;;;;17.29;52.63;100589.91;2090073;28;19928;-60
2022/03/24 00:20:34;;;;;;;;;;;;;;;17.29;52.61;100586.31;2090923;28;20002;-61
2022/03/24 00:21:35;;;;;;;;;;;;;;;17.28;52.49;100587.34;2091561;28;19946;-60
2022/03/24 00:22:35;;;;;;;;;;;;;;;17.26;52.76;100583.88;2091553;28;19951;-60
2022/03/24 00:23:36;;;;;;;;;;;;;;;17.26;52.70;100583.88;2090369;28;19920;-60
2022/03/24 00:24:37;;;;;;;;;;;;;;;17.25;52.57;100583.00;2091529;28;19916;-61
2022/03/24 00:25:37;;;;;;;;;;;;;;;17.26;52.62;100583.88;2089381;28;19920;-60
2022/03/24 00:26:38;;;;;;;;;;;;;;;17.25;52.66;100584.88;2088153;28;20732;-61
2022/03/24 00:27:40;;;;;;;;;;;;;;;17.23;52.83;100581.41;2091493;28;20194;-60
2022/03/24 00:28:40;;;;;;;;;;;;;;;17.24;52.66;100591.28;2086840;28;19913;-60
2022/03/24 00:29:40;;;;;;;;;;;;;;;17.23;52.69;100584.13;2087499;28;19924;-60
2022/03/24 00:30:41;;;;;;;;;;;;;;;17.23;52.75;100590.44;2088059;28;19920;-60
2022/03/24 00:31:41;;;;;;;;;;;;;;;17.24;52.60;100583.13;2092963;28;20016;-60
2022/03/24 00:32:41;;;;;;;;;;;;;;;17.27;52.45;100593.75;2092828;28;20001;-60
2022/03/24 00:33:42;;;;;;;;;;;;;;;17.27;52.53;100593.75;2094273;28;19922;-60
2022/03/24 00:34:42;;;;;;;;;;;;;;;17.27;52.58;100591.03;2090068;28;19920;-60
2022/03/24 00:35:42;;;;;;;;;;;;;;;17.27;52.37;100588.31;2091378;28;19916;-60
2022/03/24 00:36:43;;;;;;;;;;;;;;;17.26;52.66;100587.44;2087147;28;20089;-60
2022/03/24 00:37:43;;;;;;;;;;;;;;;17.29;52.45;100583.59;2090571;28;19920;-60
2022/03/24 00:38:43;;;;;;;;;;;;;;;17.29;52.70;100583.59;2089718;28;19956;-60
2022/03/24 00:39:44;;;;;;;;;;;;;;;17.30;52.35;100590.81;2090432;28;19993;-60
2022/03/24 00:40:44;;;;;;;;;;;;;;;17.31;52.30;100581.63;2091295;28;19955;-60
2022/03/24 00:41:44;;;;;;;;;;;;;;;17.29;52.60;100580.88;2089602;28;20313;-60
2022/03/24 00:42:45;;;;;;;;;;;;;;;17.31;52.63;100578.91;2092187;28;19939;-60
2022/03/24 00:43:48;;;;;;;;;;;;;;;17.32;52.30;100580.63;2093544;28;19947;-60
2022/03/24 00:44:51;;;;;;;;;;;;;;;17.31;52.38;100582.47;2090322;28;19947;-60
2022/03/24 00:45:52;;;;;;;;;;;;;;;17.31;52.63;100582.47;2092965;28;19920;-60
2022/03/24 00:46:52;;;;;;;;;;;;;;;17.33;52.51;100579.66;2090841;28;19920;-61
2022/03/24 00:47:53;;;;;;;;;;;;;;;17.32;52.38;100580.63;2090116;28;20461;-60
2022/03/24 00:48:53;;;;;;;;;;;;;;;17.32;52.34;100577.91;2093623;28;19927;-61
2022/03/24 00:49:54;;;;;;;;;;;;;;;17.34;52.61;100581.38;2092962;28;19928;-61
2022/03/24 00:50:54;;;;;;;;;;;;;;;17.33;52.27;100576.91;2093183;28;19920;-60
2022/03/24 00:51:55;;;;;;;;;;;;;;;17.33;52.49;100585.09;2092006;28;19924;-60
2022/03/24 00:52:55;;;;;;;;;;;;;;;17.32;52.45;100577.91;2093692;28;20782;-60
2022/03/24 00:53:56;;;;;;;;;;;;;;;17.33;52.42;100582.38;2093652;28;20340;-60
2022/03/24 00:54:57;;;;;;;;;;;;;;;17.30;52.45;100575.31;2090792;28;19926;-59
2022/03/24 00:55:58;;;;;;;;;;;;;;;17.33;52.58;100579.66;2089545;28;19958;-60
2022/03/24 00:56:59;;;;;;;;;;;;;;;17.31;52.46;100574.31;2090175;28;19920;-60
2022/03/24 00:58:00;;;;;;;;;;;;;;;17.31;52.36;100576.19;2092648;28;20628;-60
2022/03/24 00:59:00;;;;;;;;;;;;;;;17.30;52.42;100572.59;2090771;28;20361;-60
2022/03/24 01:00:01;;;;;;;;;;;;;;;17.31;52.53;100578.91;2091941;28;20558;-60
2022/03/24 01:01:03;;;;;;;;;;;;;;;17.30;52.63;100579.91;2089150;28;20337;-60
2022/03/24 01:02:04;;;;;;;;;;;;;;;17.30;52.63;100577.19;2092548;28;19908;-60
2022/03/24 01:03:08;;;;;;;;;;;;;;;17.30;52.46;100580.75;2087493;28;19982;-60
2022/03/24 01:04:09;;;;;;;;;;;;;;;17.29;52.58;100578.16;2087147;28;19921;-61
2022/03/24 01:05:11;;;;;;;;;;;;;;;17.30;52.46;100574.44;2092748;28;20006;-61
2022/03/24 01:06:16;;;;;;;;;;;;;;;17.29;52.42;100569.97;2092538;28;19919;-60
2022/03/24 01:07:17;;;;;;;;;;;;;;;17.28;52.40;100571.00;2092579;28;20007;-60
2022/03/24 01:08:18;;;;;;;;;;;;;;;17.28;52.47;100566.41;2091217;28;19920;-60
2022/03/24 01:09:18;;;;;;;;;;;;;;;17.29;52.60;100572.69;2085797;28;20230;-60
2022/03/24 01:10:19;;;;;;;;;;;;;;;17.29;52.64;100559.94;2088877;28;19994;-60
2022/03/24 01:11:20;;;;;;;;;;;;;;;17.29;52.51;100568.13;2092087;28;19920;-61
2022/03/24 01:12:22;;;;;;;;;;;;;;;17.27;52.59;100564.69;2090919;28;19920;-60
2022/03/24 01:13:22;;;;;;;;;;;;;;;17.26;52.41;100562.06;2091501;28;19916;-60
2022/03/24 01:14:23;;;;;;;;;;;;;;;17.26;52.58;100564.78;2092896;28;19916;-60
2022/03/24 01:15:23;;;;;;;;;;;;;;;17.26;52.36;100553.91;2092318;28;19916;-60
2022/03/24 01:16:25;;;;;;;;;;;;;;;17.26;52.47;100557.47;2090205;28;20393;-60
2022/03/24 01:17:26;;;;;;;;;;;;;;;17.26;52.43;100559.34;2090624;28;20015;-61
2022/03/24 01:18:27;;;;;;;;;;;;;;;17.27;52.34;100552.88;2090938;28;20468;-61
2022/03/24 01:19:27;;;;;;;;;;;;;;;17.27;52.59;100555.59;2085457;28;20642;-60
2022/03/24 01:20:29;;;;;;;;;;;;;;;17.28;52.45;100560.09;2091753;28;20069;-61
2022/03/24 01:21:29;;;;;;;;;;;;;;;17.27;52.50;100552.88;2089014;28;19924;-61
2022/03/24 01:22:30;;;;;;;;;;;;;;;17.26;52.65;100552.03;2091444;28;19916;-61
2022/03/24 01:23:30;;;;;;;;;;;;;;;17.25;52.51;100553.03;2090497;28;19960;-60
2022/03/24 01:24:31;;;;;;;;;;;;;;;17.26;52.46;100553.91;2092009;28;20280;-61
2022/03/24 01:25:31;;;;;;;;;;;;;;;17.25;52.50;100546.72;2090625;28;19916;-61
2022/03/24 01:26:31;;;;;;;;;;;;;;;17.25;52.26;100552.19;2092715;28;20384;-60
2022/03/24 01:27:32;;;;;;;;;;;;;;;17.26;52.49;100553.91;2090914;28;19916;-61
2022/03/24 01:28:33;;;;;;;;;;;;;;;17.26;52.48;100548.44;2092199;28;19970;-60
2022/03/24 01:29:34;;;;;;;;;;;;;;;17.23;52.49;100551.44;2092248;28;20678;-60
2022/03/24 01:30:34;;;;;;;;;;;;;;;17.24;52.69;100550.44;2093619;28;19951;-60
2022/03/24 01:31:35;;;;;;;;;;;;;;;17.23;52.61;100544.13;2094573;28;19912;-60
2022/03/24 01:32:36;;;;;;;;;;;;;;;17.22;52.68;100544.22;2090089;28;19919;-60
2022/03/24 01:33:37;;;;;;;;;;;;;;;17.22;52.58;100545.13;2093370;28;19912;-61
2022/03/24 01:34:38;;;;;;;;;;;;;;;17.22;52.28;100541.50;2091962;28;20019;-60
2022/03/24 01:35:38;;;;;;;;;;;;;;;17.21;52.59;100537.06;2089487;28;20341;-61
2022/03/24 01:36:39;;;;;;;;;;;;;;;17.22;52.49;100536.94;2091729;28;20664;-61
2022/03/24 01:37:40;;;;;;;;;;;;;;;17.23;52.42;100540.53;2090672;28;20379;-60
2022/03/24 01:38:40;;;;;;;;;;;;;;;17.24;52.36;100547.69;2093145;28;20015;-60
2022/03/24 01:39:41;;;;;;;;;;;;;;;17.23;52.70;100537.81;2092713;28;19924;-60
2022/03/24 01:40:41;;;;;;;;;;;;;;;17.23;52.59;100543.25;2091395;28;19965;-61
2022/03/24 01:41:44;;;;;;;;;;;;;;;17.24;52.58;100539.53;2091459;28;19916;-61
2022/03/24 01:42:46;;;;;;;;;;;;;;;17.25;52.64;100536.69;2086767;28;19969;-61
2022/03/24 01:43:47;;;;;;;;;;;;;;;17.25;52.31;100538.56;2087407;28;20295;-60
2022/03/24 01:44:48;;;;;;;;;;;;;;;17.26;52.46;100534.81;2088767;28;19924;-60
2022/03/24 01:45:49;;;;;;;;;;;;;;;17.25;52.47;100544.88;2088798;28;19951;-60
2022/03/24 01:47:09;;;;;;;;;;;;;;;17.27;52.36;100542.00;2085625;28;19974;-61
2022/03/24 01:48:09;;;;;;;;;;;;;;;17.27;52.54;100542.88;2086542;28;19989;-60
2022/03/24 01:49:10;;;;;;;;;;;;;;;17.27;52.59;100542.00;2092956;28;19908;-60
2022/03/24 01:50:11;;;;;;;;;;;;;;;17.27;52.51;100542.88;2089136;28;19924;-61
2022/03/24 01:51:11;;;;;;;;;;;;;;;17.27;52.29;100531.97;2091869;28;20317;-60
2022/03/24 01:52:12;;;;;;;;;;;;;;;17.28;52.53;100527.38;2088424;28;20118;-60
2022/03/24 01:53:13;;;;;;;;;;;;;;;17.29;52.36;100534.56;2092646;28;19923;-60
2022/03/24 01:54:13;;;;;;;;;;;;;;;17.27;52.46;100531.97;2091501;28;20382;-61
2022/03/24 01:55:14;;;;;;;;;;;;;;;17.28;52.45;100533.69;2091819;28;19939;-61
2022/03/24 01:56:15;;;;;;;;;;;;;;;17.27;52.28;100542.88;2088584;28;19920;-61
2022/03/24 01:57:15;;;;;;;;;;;;;;;17.27;52.57;100534.72;2091026;28;20722;-60
2022/03/24 01:58:16;;;;;;;;;;;;;;;17.27;52.54;100531.09;2092701;28;20280;-61
2022/03/24 01:59:16;;;;;;;;;;;;;;;17.28;52.52;100530.13;2092709;28;20345;-61
2022/03/24 02:00:17;;;;;;;;;;;;;;;17.27;52.32;100525.63;2092775;28;20398;-60
2022/03/24 02:01:29;;;;;;;;;;;;;;;17.27;52.48;100531.09;2093296;28;19919;-60
2022/03/24 02:02:29;;;;;;;;;;;;;;;17.26;52.54;100523.91;2092238;28;20341;-61
2022/03/24 02:03:32;;;;;;;;;;;;;;;17.26;52.50;100530.22;2093003;28;19956;-60
2022/03/24 02:04:35;;;;;;;;;;;;;;;17.26;52.58;100529.38;2092253;28;19914;-61
2022/03/24 02:05:36;;;;;;;;;;;;;;;17.25;52.59;100524.94;2093361;28;19927;-60
2022/03/24 02:06:36;;;;;;;;;;;;;;;17.24;52.48;100528.63;2093068;28;20036;-60
2022/03/24 02:07:37;;;;;;;;;;;;;;;17.25;52.57;100533.09;2091077;28;19908;-61
2022/03/24 02:08:38;;;;;;;;;;;;;;;17.25;52.37;100527.66;2088684;28;19927;-61
2022/03/24 02:09:39;;;;;;;;;;;;;;;17.25;52.47;100527.66;2091953;28;20347;-60
2022/03/24 02:10:39;;;;;;;;;;;;;;;17.25;52.35;100524.94;2092321;28;20327;-61
2022/03/24 02:11:40;;;;;;;;;;;;;;;17.25;52.55;100522.22;2092972;28;20440;-61
2022/03/24 02:12:40;;;;;;;;;;;;;;;17.25;52.55;100522.22;2092655;28;19916;-60
2022/03/24 02:13:40;;;;;;;;;;;;;;;17.24;52.44;100517.72;2092253;28;19912;-60
2022/03/24 02:14:41;;;;;;;;;;;;;;;17.25;52.26;100520.34;2091712;28;19916;-60
2022/03/24 02:15:42;;;;;;;;;;;;;;;17.24;52.57;100517.72;2092525;28;20394;-61
2022/03/24 02:16:46;;;;;;;;;;;;;;;17.24;52.39;100517.72;2086423;28;19954;-61
2022/03/24 02:17:48;;;;;;;;;;;;;;;17.23;52.34;100513.28;2091716;28;19931;-61
2022/03/24 02:18:49;;;;;;;;;;;;;;;17.23;52.43;100522.31;2086852;28;20302;-61
2022/03/24 02:19:49;;;;;;;;;;;;;;;17.22;52.43;100522.44;2091470;28;19919;-60
2022/03/24 02:20:51;;;;;;;;;;;;;;;17.21;52.31;100515.28;2092884;28;19920;-61
2022/03/24 02:21:54;;;;;;;;;;;;;;;17.21;52.52;100518.84;2092925;28;19916;-60
2022/03/24 02:22:54;;;;;;;;;;;;;;;17.21;52.64;100513.41;2092163;28;20366;-60
2022/03/24 02:23:55;;;;;;;;;;;;;;;17.21;52.63;100509.81;2087751;28;20584;-60
2022/03/24 02:24:55;;;;;;;;;;;;;;;17.22;52.51;100517.00;2090226;28;20399;-61
2022/03/24 02:25:56;;;;;;;;;;;;;;;17.22;52.71;100522.44;2090832;28;19924;-61
2022/03/24 02:26:59;;;;;;;;;;;;;;;17.20;52.71;100513.53;2092351;28;20342;-61
2022/03/24 02:28:01;;;;;;;;;;;;;;;17.19;52.88;100509.06;2091997;28;19920;-61
2022/03/24 02:29:06;;;;;;;;;;;;;;;17.18;52.80;100504.63;2088661;28;20009;-61
2022/03/24 02:30:07;;;;;;;;;;;;;;;17.17;52.83;100511.06;2087982;28;19930;-60
2022/03/24 02:31:09;;;;;;;;;;;;;;;17.16;52.80;100507.47;2090309;28;19927;-60
2022/03/24 02:32:11;;;;;;;;;;;;;;;17.17;52.75;100509.19;2088186;28;19924;-60
2022/03/24 02:33:12;;;;;;;;;;;;;;;17.16;52.56;100509.34;2088942;28;20439;-60
2022/03/24 02:35:32;;;;;;;;;;;;;;;17.15;52.78;100508.47;2088432;28;20348;-61
2022/03/24 02:36:39;;;;;;;;;;;;;;;17.14;52.59;100504.00;2090287;28;19924;-61
2022/03/24 02:37:40;;;;;;;;;;;;;;;17.15;52.68;100511.22;2089729;28;19923;-61
2022/03/24 02:38:40;;;;;;;;;;;;;;;17.16;52.76;100503.91;2093266;28;19916;-61
2022/03/24 02:39:44;;;;;;;;;;;;;;;17.17;52.83;100500.16;2090201;28;19916;-61
2022/03/24 02:40:45;;;;;;;;;;;;;;;17.17;52.53;100503.75;2087434;28;19913;-60
2022/03/24 02:41:53;;;;;;;;;;;;;;;17.17;52.62;100503.75;2090894;28;19916;-60
2022/03/24 02:42:53;;;;;;;;;;;;;;;17.18;52.56;100507.34;2092704;28;20113;-61
2022/03/24 02:43:53;;;;;;;;;;;;;;;17.19;52.79;100509.06;2090708;28;19940;-60
2022/03/24 02:44:55;;;;;;;;;;;;;;;17.19;52.78;100504.50;2085304;28;20180;-61
2022/03/24 02:45:56;;;;;;;;;;;;;;;17.20;52.77;100502.63;2090522;28;20371;-61
2022/03/24 02:46:59;;;;;;;;;;;;;;;17.21;52.69;100498.91;2091668;28;20052;-61
2022/03/24 02:47:59;;;;;;;;;;;;;;;17.22;52.48;100501.53;2092354;28;20020;-60
2022/03/24 02:48:59;;;;;;;;;;;;;;;17.22;52.63;100497.91;2091703;28;19912;-60
2022/03/24 02:50:00;;;;;;;;;;;;;;;17.22;52.53;100500.63;2086731;28;19931;-60
2022/03/24 02:51:02;;;;;;;;;;;;;;;17.22;52.49;100497.91;2091383;28;19920;-61
2022/03/24 02:52:03;;;;;;;;;;;;;;;17.23;52.67;100496.94;2088640;28;20327;-61
2022/03/24 02:53:04;;;;;;;;;;;;;;;17.22;52.65;100490.63;2093249;28;19924;-61
2022/03/24 02:54:05;;;;;;;;;;;;;;;17.23;52.65;100497.81;2092249;28;19966;-60
2022/03/24 02:55:05;;;;;;;;;;;;;;;17.21;52.52;100488.03;2090210;28;20310;-61
2022/03/24 02:56:05;;;;;;;;;;;;;;;17.25;52.72;100494.97;2091576;28;19989;-61
2022/03/24 02:57:06;;;;;;;;;;;;;;;17.24;52.56;100493.22;2087536;28;19920;-61
2022/03/24 02:58:07;;;;;;;;;;;;;;;17.22;52.61;100487.91;2092785;28;19927;-61
2022/03/24 02:59:08;;;;;;;;;;;;;;;17.24;52.68;100493.22;2089601;28;20097;-61
2022/03/24 03:00:08;;;;;;;;;;;;;;;17.24;52.54;100487.75;2088621;28;19926;-60
2022/03/24 03:01:09;;;;;;;;;;;;;;;17.23;52.73;100483.31;2090294;28;19927;-60
2022/03/24 03:02:18;;;;;;;;;;;;;;;17.22;52.67;100490.63;2086876;28;19924;-61
2022/03/24 03:03:22;;;;;;;;;;;;;;;17.23;52.75;100486.91;2092032;28;20394;-61
2022/03/24 03:04:22;;;;;;;;;;;;;;;17.22;52.55;100489.75;2091717;28;19974;-60
2022/03/24 03:05:23;;;;;;;;;;;;;;;17.23;52.73;100492.34;2092662;28;19965;-61
2022/03/24 03:06:23;;;;;;;;;;;;;;;17.22;52.59;100484.28;2088474;28;19926;-61
2022/03/24 03:07:23;;;;;;;;;;;;;;;17.22;52.58;100484.28;2091902;28;19924;-61
2022/03/24 03:08:24;;;;;;;;;;;;;;;17.21;52.80;100488.88;2090658;28;19926;-60
2022/03/24 03:09:24;;;;;;;;;;;;;;;17.21;52.88;100493.47;2089164;28;20013;-60
2022/03/24 03:10:24;;;;;;;;;;;;;;;17.20;52.70;100489.00;2088454;28;19928;-61
2022/03/24 03:11:25;;;;;;;;;;;;;;;17.19;52.77;100490.00;2087933;28;20417;-61
2022/03/24 03:12:27;;;;;;;;;;;;;;;17.18;52.74;100485.56;2092928;28;20397;-61
2022/03/24 03:13:28;;;;;;;;;;;;;;;17.18;53.07;100489.16;2090726;28;19926;-60
2022/03/24 03:14:29;;;;;;;;;;;;;;;17.18;52.98;100493.75;2092553;28;19931;-60
2022/03/24 03:15:29;;;;;;;;;;;;;;;17.17;52.90;100492.84;2090736;28;19927;-60
2022/03/24 03:16:30;;;;;;;;;;;;;;;17.17;52.69;100486.53;2092405;28;20393;-61
2022/03/24 03:17:30;;;;;;;;;;;;;;;17.16;52.86;100484.81;2091578;28;19927;-60
2022/03/24 03:18:33;;;;;;;;;;;;;;;17.17;53.10;100497.44;2088724;28;20665;-60
2022/03/24 03:19:34;;;;;;;;;;;;;;;17.16;52.75;100493.84;2087815;28;20447;-60
2022/03/24 03:20:36;;;;;;;;;;;;;;;17.16;53.01;100491.13;2091238;28;19920;-60
2022/03/24 03:21:37;;;;;;;;;;;;;;;17.15;52.98;100492.13;2092314;28;19921;-60
2022/03/24 03:22:37;;;;;;;;;;;;;;;17.16;52.91;100487.53;2090687;28;19920;-60
2022/03/24 03:23:38;;;;;;;;;;;;;;;17.13;52.77;100492.25;2092365;28;19920;-61
2022/03/24 03:24:41;;;;;;;;;;;;;;;17.13;52.86;100492.25;2090438;28;19920;-60
2022/03/24 03:25:41;;;;;;;;;;;;;;;17.14;52.91;100487.66;2088123;28;19925;-61
2022/03/24 03:26:42;;;;;;;;;;;;;;;17.13;52.67;100486.81;2093746;28;19916;-61
2022/03/24 03:27:42;;;;;;;;;;;;;;;17.13;52.91;100484.06;2092757;28;19927;-60
2022/03/24 03:28:43;;;;;;;;;;;;;;;17.12;52.83;100485.09;2091440;28;19964;-61
2022/03/24 03:29:44;;;;;;;;;;;;;;;17.13;53.01;100489.53;2091105;28;19977;-60
2022/03/24 03:30:44;;;;;;;;;;;;;;;17.13;52.83;100488.66;2092123;28;19924;-60
2022/03/24 03:31:45;;;;;;;;;;;;;;;17.13;52.58;100480.50;2091143;28;19919;-60
2022/03/24 03:32:45;;;;;;;;;;;;;;;17.13;52.80;100486.81;2092187;28;19920;-61
2022/03/24 03:33:46;;;;;;;;;;;;;;;17.13;52.62;100484.06;2087655;28;19920;-61
2022/03/24 03:34:46;;;;;;;;;;;;;;;17.15;52.50;100486.69;2092162;28;19920;-61
2022/03/24 03:35:46;;;;;;;;;;;;;;;17.13;52.84;100484.06;2085186;28;20233;-61
2022/03/24 03:36:47;;;;;;;;;;;;;;;17.13;52.84;100481.34;2089011;28;19924;-61
2022/03/24 03:37:47;;;;;;;;;;;;;;;17.13;52.83;100481.34;2087763;28;19916;-61
2022/03/24 03:38:48;;;;;;;;;;;;;;;17.13;52.91;100485.94;2092611;28;19920;-61
2022/03/24 03:39:49;;;;;;;;;;;;;;;17.13;52.73;100483.22;2091288;28;20322;-59
2022/03/24 03:40:50;;;;;;;;;;;;;;;17.15;52.78;100478.50;2091913;28;19920;-61
2022/03/24 03:41:51;;;;;;;;;;;;;;;17.16;52.65;100485.69;2090423;28;20151;-60
2022/03/24 03:42:52;;;;;;;;;;;;;;;17.16;52.63;100479.38;2092061;28;19920;-61
2022/03/24 03:43:53;;;;;;;;;;;;;;;17.17;52.55;100487.41;2089321;28;19968;-61
2022/03/24 03:44:54;;;;;;;;;;;;;;;17.16;52.69;100480.22;2091993;28;19951;-61
2022/03/24 03:45:55;;;;;;;;;;;;;;;17.16;52.66;100474.78;2092466;28;19920;-61
2022/03/24 03:46:55;;;;;;;;;;;;;;;17.16;52.59;100477.50;2090541;28;19943;-61
2022/03/24 03:47:56;;;;;;;;;;;;;;;17.18;52.76;100480.13;2090950;28;19959;-61
2022/03/24 03:48:56;;;;;;;;;;;;;;;17.19;52.70;100473.66;2083789;28;19921;-60
2022/03/24 03:49:57;;;;;;;;;;;;;;;17.17;52.70;100476.50;2080857;28;19982;-61
2022/03/24 03:50:57;;;;;;;;;;;;;;;17.19;52.79;100473.66;2090976;28;20398;-60
2022/03/24 03:51:58;;;;;;;;;;;;;;;17.18;52.75;100482.84;2091255;28;19920;-61
2022/03/24 03:52:58;;;;;;;;;;;;;;;17.19;52.61;100476.38;2090364;28;19934;-60
2022/03/24 03:53:58;;;;;;;;;;;;;;;17.19;52.56;100479.97;2089798;28;19924;-60
2022/03/24 03:54:59;;;;;;;;;;;;;;;17.19;52.57;100479.97;2087579;28;19956;-61
2022/03/24 03:55:59;;;;;;;;;;;;;;;17.19;52.82;100470.94;2086929;28;19926;-60
2022/03/24 03:57:00;;;;;;;;;;;;;;;17.19;52.69;100473.66;2089499;28;19923;-61
2022/03/24 03:58:00;;;;;;;;;;;;;;;17.19;52.70;100465.50;2091773;28;20034;-61
2022/03/24 03:59:00;;;;;;;;;;;;;;;17.19;52.46;100470.94;2090480;28;19924;-60
2022/03/24 04:00:52;;;;;;;;;;;;;;;17.17;52.54;100462.88;2093384;28;19916;-60
2022/03/24 04:01:21;;;;;;;;;;;;;;;17.17;52.80;100471.06;2090070;28;19934;-61
2022/03/24 04:02:21;;;;;;;;;;;;;;;17.18;52.79;100466.50;2087825;28;19920;-60
2022/03/24 04:03:23;;;;;;;;;;;;;;;17.18;52.88;100463.78;2089812;28;19994;-61
2022/03/24 04:04:24;;;;;;;;;;;;;;;17.18;52.74;100466.50;2090682;28;20297;-61
2022/03/24 04:05:25;;;;;;;;;;;;;;;17.16;52.73;100463.88;2091313;28;19924;-61
2022/03/24 04:06:25;;;;;;;;;;;;;;;17.17;52.69;100459.31;2089631;28;19916;-61
2022/03/24 04:07:26;;;;;;;;;;;;;;;17.17;52.69;100470.19;2091760;28;19959;-60
2022/03/24 04:08:29;;;;;;;;;;;;;;;17.16;52.72;100463.88;2091316;28;19939;-60
2022/03/24 04:09:30;;;;;;;;;;;;;;;17.17;52.85;100464.75;2089676;28;19968;-61
2022/03/24 04:10:30;;;;;;;;;;;;;;;17.16;52.81;100468.47;2091623;28;19916;-61
2022/03/24 04:11:30;;;;;;;;;;;;;;;17.17;52.84;100464.75;2088445;28;20328;-60
2022/03/24 04:12:31;;;;;;;;;;;;;;;17.14;52.60;100461.28;2085640;28;19916;-60
2022/03/24 04:13:31;;;;;;;;;;;;;;;17.16;52.81;100465.75;2092798;28;20434;-60
2022/03/24 04:14:32;;;;;;;;;;;;;;;17.16;52.66;100457.59;2090168;28;21372;-61
2022/03/24 04:15:33;;;;;;;;;;;;;;;17.15;52.77;100456.72;2084446;28;20113;-60
2022/03/24 04:16:33;;;;;;;;;;;;;;;17.16;52.76;100460.31;2090364;28;19920;-60
2022/03/24 04:17:33;;;;;;;;;;;;;;;17.16;52.76;100457.59;2087233;28;20117;-60
2022/03/24 04:18:34;;;;;;;;;;;;;;;17.16;52.73;100452.13;2092072;28;19920;-60
2022/03/24 04:19:34;;;;;;;;;;;;;;;17.16;52.88;100460.31;2091104;28;19924;-61
2022/03/24 04:20:34;;;;;;;;;;;;;;;17.15;52.49;100462.16;2091407;28;19920;-61
2022/03/24 04:21:35;;;;;;;;;;;;;;;17.14;52.69;100461.28;2091852;28;19952;-60
2022/03/24 04:22:35;;;;;;;;;;;;;;;17.14;52.62;100455.84;2089922;28;19927;-60
2022/03/24 04:23:36;;;;;;;;;;;;;;;17.14;52.87;100461.28;2083083;28;19916;-61
2022/03/24 04:24:37;;;;;;;;;;;;;;;17.14;52.86;100461.28;2081044;28;20306;-61
2022/03/24 04:25:37;;;;;;;;;;;;;;;17.14;52.87;100458.56;2085318;28;19917;-60
2022/03/24 04:26:38;;;;;;;;;;;;;;;17.13;52.78;100467.72;2091869;28;20806;-61
2022/03/24 04:27:38;;;;;;;;;;;;;;;17.12;52.92;100463.28;2088557;28;19916;-61
2022/03/24 04:28:39;;;;;;;;;;;;;;;17.14;52.82;100458.56;2092001;28;19947;-61
2022/03/24 04:29:39;;;;;;;;;;;;;;;17.12;52.80;100463.28;2090137;28;19955;-60
2022/03/24 04:30:39;;;;;;;;;;;;;;;17.11;52.77;100461.53;2092618;28;19916;-60
2022/03/24 04:31:39;;;;;;;;;;;;;;;17.12;52.79;100456.97;2090934;28;20150;-61
2022/03/24 04:32:40;;;;;;;;;;;;;;;17.10;52.80;100464.41;2090339;28;20401;-60
2022/03/24 04:33:40;;;;;;;;;;;;;;;17.10;52.89;100465.28;2090546;28;20463;-60
2022/03/24 04:34:41;;;;;;;;;;;;;;;17.10;52.80;100464.41;2087743;28;19938;-60
2022/03/24 04:35:41;;;;;;;;;;;;;;;17.09;52.88;100462.66;2090371;28;19916;-60
2022/03/24 04:36:42;;;;;;;;;;;;;;;17.09;52.82;100468.13;2089314;28;20007;-60
2022/03/24 04:37:43;;;;;;;;;;;;;;;17.08;52.84;100463.69;2089924;28;20381;-61
2022/03/24 04:38:43;;;;;;;;;;;;;;;17.08;52.96;100463.69;2093103;28;19919;-60
2022/03/24 04:39:43;;;;;;;;;;;;;;;17.07;52.81;100465.50;2094006;28;19920;-60
2022/03/24 04:40:44;;;;;;;;;;;;;;;17.07;53.06;100465.50;2092725;28;19942;-60
2022/03/24 04:41:45;;;;;;;;;;;;;;;17.09;52.88;100463.53;2090238;28;19920;-60
2022/03/24 04:42:46;;;;;;;;;;;;;;;17.08;52.79;100461.81;2092356;28;19916;-60
2022/03/24 04:43:46;;;;;;;;;;;;;;;17.09;52.61;100462.66;2089695;28;20287;-61
2022/03/24 04:44:47;;;;;;;;;;;;;;;17.10;52.60;100464.41;2085145;28;19998;-61
2022/03/24 04:45:47;;;;;;;;;;;;;;;17.10;52.77;100459.81;2091261;28;19912;-61
2022/03/24 04:46:47;;;;;;;;;;;;;;;17.10;52.97;100464.41;2092265;28;19930;-60
2022/03/24 04:47:48;;;;;;;;;;;;;;;17.11;52.78;100461.53;2088848;28;19946;-60
2022/03/24 04:48:49;;;;;;;;;;;;;;;17.11;52.79;100461.53;2079443;28;19952;-60
2022/03/24 04:49:50;;;;;;;;;;;;;;;17.11;52.73;100450.66;2081029;28;19955;-61
2022/03/24 04:50:50;;;;;;;;;;;;;;;17.13;52.71;100464.16;2091302;28;19927;-60
2022/03/24 04:51:50;;;;;;;;;;;;;;;17.13;52.96;100470.47;2086255;28;19912;-60
2022/03/24 04:52:51;;;;;;;;;;;;;;;17.12;52.67;100463.28;2088942;28;19920;-60
2022/03/24 04:53:51;;;;;;;;;;;;;;;17.13;52.65;100465.00;2091464;28;19927;-60
2022/03/24 04:54:51;;;;;;;;;;;;;;;17.13;52.99;100467.72;2091170;28;20286;-60
2022/03/24 04:55:52;;;;;;;;;;;;;;;17.13;52.74;100464.16;2089305;28;20024;-61
2022/03/24 04:56:52;;;;;;;;;;;;;;;17.13;52.85;100464.16;2090781;28;20695;-61
2022/03/24 04:57:52;;;;;;;;;;;;;;;17.13;52.61;100462.28;2090599;28;20106;-61
2022/03/24 04:58:52;;;;;;;;;;;;;;;17.13;52.67;100467.72;2089925;28;20361;-60
2022/03/24 04:59:53;;;;;;;;;;;;;;;17.14;52.74;100472.19;2090897;28;19920;-61
2022/03/24 05:00:53;;;;;;;;;;;;;;;17.14;52.74;100466.72;2092062;28;19916;-60
2022/03/24 05:01:54;;;;;;;;;;;;;;;17.13;52.77;100465.00;2090250;28;19931;-61
2022/03/24 05:02:54;;;;;;;;;;;;;;;17.12;52.72;100463.28;2090728;28;19916;-60
2022/03/24 05:03:55;;;;;;;;;;;;;;;17.15;52.83;100470.34;2089059;28;19924;-60
2022/03/24 05:04:55;;;;;;;;;;;;;;;17.14;52.74;100465.88;2091687;28;20018;-60
2022/03/24 05:05:55;;;;;;;;;;;;;;;17.14;52.78;100471.31;2089836;28;19920;-61
2022/03/24 05:06:56;;;;;;;;;;;;;;;17.14;52.73;100472.19;2088221;28;20720;-61
2022/03/24 05:07:56;;;;;;;;;;;;;;;17.13;52.76;100475.03;2088373;28;19977;-60
2022/03/24 05:08:56;;;;;;;;;;;;;;;17.14;52.71;100477.63;2085926;28;19927;-60
2022/03/24 05:09:57;;;;;;;;;;;;;;;17.13;52.85;100473.19;2087288;28;19930;-60
2022/03/24 05:10:57;;;;;;;;;;;;;;;17.14;52.81;100474.91;2092115;28;20184;-60
2022/03/24 05:11:57;;;;;;;;;;;;;;;17.13;52.77;100475.91;2089220;28;19924;-60
2022/03/24 05:12:57;;;;;;;;;;;;;;;17.13;52.78;100473.19;2086584;28;19916;-61
2022/03/24 05:13:58;;;;;;;;;;;;;;;17.12;52.80;100474.19;2088855;28;19920;-61